sensor_id;sensor_type;location;lat;lon;timestamp;P1;durP1;ratioP1;P2;durP2;ratioP2
32639;SDS011;19049;52.524;11.468;2022-12-16T00:00:03;11.10;;;5.30;;
32639;SDS011;19049;52.524;11.468;2022-12-16T00:02:31;10.93;;;5.15;;
32639;SDS011;19049;52.524;11.468;2022-12-16T00:04:58;11.83;;;5.47;;
32639;SDS011;19049;52.524;11.468;2022-12-16T00:07:24;9.25;;;4.38;;
32639;SDS011;19049;52.524;11.468;2022-12-16T00:09:50;10.10;;;5.33;;
32639;SDS011;19049;52.524;11.468;2022-12-16T00:12:16;10.43;;;5.20;;
32639;SDS011;19049;52.524;11.468;2022-12-16T00:14:41;9.70;;;4.67;;
32639;SDS011;19049;52.524;11.468;2022-12-16T00:17:07;10.20;;;4.57;;
32639;SDS011;19049;52.524;11.468;2022-12-16T00:19:33;9.97;;;4.73;;
32639;SDS011;19049;52.524;11.468;2022-12-16T00:21:59;9.40;;;4.53;;
32639;SDS011;19049;52.524;11.468;2022-12-16T00:24:25;10.90;;;5.17;;
32639;SDS011;19049;52.524;11.468;2022-12-16T00:26:54;7.15;;;4.30;;
32639;SDS011;19049;52.524;11.468;2022-12-16T00:29:21;8.77;;;4.63;;
32639;SDS011;19049;52.524;11.468;2022-12-16T00:31:47;11.43;;;5.60;;
32639;SDS011;19049;52.524;11.468;2022-12-16T00:34:13;10.93;;;5.50;;
32639;SDS011;19049;52.524;11.468;2022-12-16T00:36:39;9.65;;;4.72;;
32639;SDS011;19049;52.524;11.468;2022-12-16T00:39:06;9.73;;;5.15;;
32639;SDS011;19049;52.524;11.468;2022-12-16T00:41:31;12.87;;;6.33;;
32639;SDS011;19049;52.524;11.468;2022-12-16T00:43:57;11.33;;;5.63;;
32639;SDS011;19049;52.524;11.468;2022-12-16T00:46:23;13.63;;;5.53;;
32639;SDS011;19049;52.524;11.468;2022-12-16T00:48:49;10.30;;;5.33;;
32639;SDS011;19049;52.524;11.468;2022-12-16T00:51:15;8.97;;;4.73;;
32639;SDS011;19049;52.524;11.468;2022-12-16T00:53:41;9.13;;;4.73;;
32639;SDS011;19049;52.524;11.468;2022-12-16T00:56:08;10.43;;;4.63;;
32639;SDS011;19049;52.524;11.468;2022-12-16T00:58:35;9.07;;;4.68;;
32639;SDS011;19049;52.524;11.468;2022-12-16T01:01:03;10.68;;;4.75;;
32639;SDS011;19049;52.524;11.468;2022-12-16T01:03:29;10.25;;;5.72;;
32639;SDS011;19049;52.524;11.468;2022-12-16T01:05:57;11.60;;;5.65;;
32639;SDS011;19049;52.524;11.468;2022-12-16T01:08:23;12.83;;;5.50;;
32639;SDS011;19049;52.524;11.468;2022-12-16T01:10:49;10.70;;;5.30;;
32639;SDS011;19049;52.524;11.468;2022-12-16T01:13:16;10.85;;;4.85;;
32639;SDS011;19049;52.524;11.468;2022-12-16T01:15:42;10.55;;;5.00;;
32639;SDS011;19049;52.524;11.468;2022-12-16T01:18:08;11.30;;;5.30;;
32639;SDS011;19049;52.524;11.468;2022-12-16T01:20:35;11.60;;;5.70;;
32639;SDS011;19049;52.524;11.468;2022-12-16T01:23:02;12.65;;;5.38;;
32639;SDS011;19049;52.524;11.468;2022-12-16T01:25:28;12.90;;;5.43;;
32639;SDS011;19049;52.524;11.468;2022-12-16T01:27:54;11.37;;;4.80;;
32639;SDS011;19049;52.524;11.468;2022-12-16T01:30:21;9.95;;;4.55;;
32639;SDS011;19049;52.524;11.468;2022-12-16T01:32:48;8.32;;;4.40;;
32639;SDS011;19049;52.524;11.468;2022-12-16T01:35:14;11.57;;;5.57;;
32639;SDS011;19049;52.524;11.468;2022-12-16T01:37:40;9.83;;;4.77;;
32639;SDS011;19049;52.524;11.468;2022-12-16T01:40:06;8.60;;;4.73;;
32639;SDS011;19049;52.524;11.468;2022-12-16T01:42:34;10.70;;;5.22;;
32639;SDS011;19049;52.524;11.468;2022-12-16T01:47:57;8.40;;;4.25;;
32639;SDS011;19049;52.524;11.468;2022-12-16T01:50:31;9.93;;;4.85;;
32639;SDS011;19049;52.524;11.468;2022-12-16T01:52:58;8.25;;;4.15;;
32639;SDS011;19049;52.524;11.468;2022-12-16T01:55:30;9.07;;;4.45;;
32639;SDS011;19049;52.524;11.468;2022-12-16T01:58:01;9.95;;;4.82;;
32639;SDS011;19049;52.524;11.468;2022-12-16T02:00:33;8.95;;;4.47;;
32639;SDS011;19049;52.524;11.468;2022-12-16T02:03:01;7.50;;;3.95;;
32639;SDS011;19049;52.524;11.468;2022-12-16T02:05:27;10.85;;;5.00;;
32639;SDS011;19049;52.524;11.468;2022-12-16T02:07:59;9.48;;;4.93;;
32639;SDS011;19049;52.524;11.468;2022-12-16T02:18:50;9.80;;;4.80;;
32639;SDS011;19049;52.524;11.468;2022-12-16T02:32:39;7.47;;;4.80;;
32639;SDS011;19049;52.524;11.468;2022-12-16T02:43:14;7.43;;;4.22;;
32639;SDS011;19049;52.524;11.468;2022-12-16T02:45:46;6.70;;;3.67;;
32639;SDS011;19049;52.524;11.468;2022-12-16T02:48:12;7.20;;;4.53;;
32639;SDS011;19049;52.524;11.468;2022-12-16T02:50:39;8.07;;;4.17;;
32639;SDS011;19049;52.524;11.468;2022-12-16T02:53:05;8.60;;;3.60;;
32639;SDS011;19049;52.524;11.468;2022-12-16T02:58:31;10.65;;;4.85;;
32639;SDS011;19049;52.524;11.468;2022-12-16T03:04:05;7.03;;;4.18;;
32639;SDS011;19049;52.524;11.468;2022-12-16T03:06:40;8.13;;;4.43;;
32639;SDS011;19049;52.524;11.468;2022-12-16T03:09:09;7.43;;;4.00;;
32639;SDS011;19049;52.524;11.468;2022-12-16T03:11:39;7.97;;;3.92;;
32639;SDS011;19049;52.524;11.468;2022-12-16T03:14:07;8.25;;;4.03;;
32639;SDS011;19049;52.524;11.468;2022-12-16T03:16:36;7.07;;;4.03;;
32639;SDS011;19049;52.524;11.468;2022-12-16T03:19:07;7.97;;;4.43;;
32639;SDS011;19049;52.524;11.468;2022-12-16T03:21:37;8.48;;;4.65;;
32639;SDS011;19049;52.524;11.468;2022-12-16T03:24:10;8.48;;;4.20;;
32639;SDS011;19049;52.524;11.468;2022-12-16T03:26:39;9.27;;;4.47;;
32639;SDS011;19049;52.524;11.468;2022-12-16T03:29:18;7.78;;;4.63;;
32639;SDS011;19049;52.524;11.468;2022-12-16T03:32:03;10.27;;;4.68;;
32639;SDS011;19049;52.524;11.468;2022-12-16T03:37:02;8.10;;;4.80;;
32639;SDS011;19049;52.524;11.468;2022-12-16T03:39:32;11.05;;;5.25;;
32639;SDS011;19049;52.524;11.468;2022-12-16T03:42:01;12.23;;;4.40;;
32639;SDS011;19049;52.524;11.468;2022-12-16T03:44:27;6.95;;;4.30;;
32639;SDS011;19049;52.524;11.468;2022-12-16T03:46:53;9.38;;;5.10;;
32639;SDS011;19049;52.524;11.468;2022-12-16T03:49:20;7.67;;;4.67;;
32639;SDS011;19049;52.524;11.468;2022-12-16T03:51:46;6.38;;;4.10;;
32639;SDS011;19049;52.524;11.468;2022-12-16T03:54:12;7.10;;;4.10;;
32639;SDS011;19049;52.524;11.468;2022-12-16T03:56:38;8.73;;;4.93;;
32639;SDS011;19049;52.524;11.468;2022-12-16T03:59:03;8.90;;;4.10;;
32639;SDS011;19049;52.524;11.468;2022-12-16T04:01:29;7.77;;;4.17;;
32639;SDS011;19049;52.524;11.468;2022-12-16T04:03:55;8.07;;;3.87;;
32639;SDS011;19049;52.524;11.468;2022-12-16T04:06:20;5.63;;;3.63;;
32639;SDS011;19049;52.524;11.468;2022-12-16T04:08:46;6.43;;;3.60;;
32639;SDS011;19049;52.524;11.468;2022-12-16T04:11:13;5.60;;;3.00;;
32639;SDS011;19049;52.524;11.468;2022-12-16T04:13:58;5.80;;;3.90;;
32639;SDS011;19049;52.524;11.468;2022-12-16T04:16:42;6.55;;;3.67;;
32639;SDS011;19049;52.524;11.468;2022-12-16T04:19:33;6.03;;;3.40;;
32639;SDS011;19049;52.524;11.468;2022-12-16T04:22:30;6.82;;;3.50;;
32639;SDS011;19049;52.524;11.468;2022-12-16T04:25:20;7.53;;;3.80;;
32639;SDS011;19049;52.524;11.468;2022-12-16T04:27:48;6.55;;;3.70;;
32639;SDS011;19049;52.524;11.468;2022-12-16T04:30:15;6.60;;;3.93;;
32639;SDS011;19049;52.524;11.468;2022-12-16T04:32:46;5.13;;;3.25;;
32639;SDS011;19049;52.524;11.468;2022-12-16T04:35:38;7.35;;;4.40;;
32639;SDS011;19049;52.524;11.468;2022-12-16T04:38:23;6.93;;;3.78;;
32639;SDS011;19049;52.524;11.468;2022-12-16T04:41:07;8.73;;;4.00;;
32639;SDS011;19049;52.524;11.468;2022-12-16T04:43:51;7.80;;;4.35;;
32639;SDS011;19049;52.524;11.468;2022-12-16T04:46:36;9.63;;;5.28;;
32639;SDS011;19049;52.524;11.468;2022-12-16T04:49:20;7.30;;;4.00;;
32639;SDS011;19049;52.524;11.468;2022-12-16T04:52:04;7.55;;;3.78;;
32639;SDS011;19049;52.524;11.468;2022-12-16T04:54:48;10.80;;;4.30;;
32639;SDS011;19049;52.524;11.468;2022-12-16T04:57:33;6.13;;;3.88;;
32639;SDS011;19049;52.524;11.468;2022-12-16T05:00:17;7.40;;;4.07;;
32639;SDS011;19049;52.524;11.468;2022-12-16T05:03:01;5.85;;;3.53;;
32639;SDS011;19049;52.524;11.468;2022-12-16T05:05:45;8.35;;;3.90;;
32639;SDS011;19049;52.524;11.468;2022-12-16T05:08:30;6.70;;;3.58;;
32639;SDS011;19049;52.524;11.468;2022-12-16T05:11:14;8.02;;;4.10;;
32639;SDS011;19049;52.524;11.468;2022-12-16T05:13:58;5.88;;;3.50;;
32639;SDS011;19049;52.524;11.468;2022-12-16T05:16:42;8.13;;;3.88;;
32639;SDS011;19049;52.524;11.468;2022-12-16T05:19:26;8.07;;;4.10;;
32639;SDS011;19049;52.524;11.468;2022-12-16T05:22:11;6.25;;;3.30;;
32639;SDS011;19049;52.524;11.468;2022-12-16T05:24:55;6.65;;;3.40;;
32639;SDS011;19049;52.524;11.468;2022-12-16T05:27:39;8.15;;;4.10;;
32639;SDS011;19049;52.524;11.468;2022-12-16T05:30:24;7.40;;;3.67;;
32639;SDS011;19049;52.524;11.468;2022-12-16T05:33:08;4.22;;;3.05;;
32639;SDS011;19049;52.524;11.468;2022-12-16T05:35:52;7.15;;;3.53;;
32639;SDS011;19049;52.524;11.468;2022-12-16T05:38:36;6.55;;;3.42;;
32639;SDS011;19049;52.524;11.468;2022-12-16T05:41:21;5.20;;;3.50;;
32639;SDS011;19049;52.524;11.468;2022-12-16T05:44:05;5.03;;;2.72;;
32639;SDS011;19049;52.524;11.468;2022-12-16T05:46:49;5.10;;;2.88;;
32639;SDS011;19049;52.524;11.468;2022-12-16T05:49:33;5.15;;;3.05;;
32639;SDS011;19049;52.524;11.468;2022-12-16T05:52:18;5.70;;;2.88;;
32639;SDS011;19049;52.524;11.468;2022-12-16T05:55:02;6.40;;;3.38;;
32639;SDS011;19049;52.524;11.468;2022-12-16T05:57:48;6.15;;;3.03;;
32639;SDS011;19049;52.524;11.468;2022-12-16T06:00:33;4.50;;;2.50;;
32639;SDS011;19049;52.524;11.468;2022-12-16T06:03:18;5.78;;;3.47;;
32639;SDS011;19049;52.524;11.468;2022-12-16T06:06:16;6.95;;;4.07;;
32639;SDS011;19049;52.524;11.468;2022-12-16T06:09:00;5.28;;;2.97;;
32639;SDS011;19049;52.524;11.468;2022-12-16T06:11:45;5.70;;;3.30;;
32639;SDS011;19049;52.524;11.468;2022-12-16T06:14:29;7.65;;;3.45;;
32639;SDS011;19049;52.524;11.468;2022-12-16T06:17:13;8.13;;;4.28;;
32639;SDS011;19049;52.524;11.468;2022-12-16T06:19:58;7.88;;;4.35;;
32639;SDS011;19049;52.524;11.468;2022-12-16T06:22:42;7.13;;;4.03;;
32639;SDS011;19049;52.524;11.468;2022-12-16T06:25:26;8.20;;;3.63;;
32639;SDS011;19049;52.524;11.468;2022-12-16T06:28:10;7.03;;;4.10;;
32639;SDS011;19049;52.524;11.468;2022-12-16T06:30:54;7.90;;;4.00;;
32639;SDS011;19049;52.524;11.468;2022-12-16T06:33:38;8.43;;;4.57;;
32639;SDS011;19049;52.524;11.468;2022-12-16T06:36:22;8.40;;;5.30;;
32639;SDS011;19049;52.524;11.468;2022-12-16T06:39:07;6.80;;;4.30;;
32639;SDS011;19049;52.524;11.468;2022-12-16T06:41:51;7.63;;;4.22;;
32639;SDS011;19049;52.524;11.468;2022-12-16T06:44:35;7.55;;;3.83;;
32639;SDS011;19049;52.524;11.468;2022-12-16T06:47:19;9.18;;;4.68;;
32639;SDS011;19049;52.524;11.468;2022-12-16T06:50:03;11.88;;;5.35;;
32639;SDS011;19049;52.524;11.468;2022-12-16T06:52:48;8.35;;;4.25;;
32639;SDS011;19049;52.524;11.468;2022-12-16T06:55:32;7.85;;;4.60;;
32639;SDS011;19049;52.524;11.468;2022-12-16T06:58:16;10.32;;;5.10;;
32639;SDS011;19049;52.524;11.468;2022-12-16T07:01:00;10.25;;;5.13;;
32639;SDS011;19049;52.524;11.468;2022-12-16T07:03:44;11.55;;;5.60;;
32639;SDS011;19049;52.524;11.468;2022-12-16T07:06:29;8.93;;;4.43;;
32639;SDS011;19049;52.524;11.468;2022-12-16T07:09:13;10.50;;;5.30;;
32639;SDS011;19049;52.524;11.468;2022-12-16T07:11:57;11.15;;;5.82;;
32639;SDS011;19049;52.524;11.468;2022-12-16T07:14:41;11.93;;;5.20;;
32639;SDS011;19049;52.524;11.468;2022-12-16T07:17:25;8.48;;;4.65;;
32639;SDS011;19049;52.524;11.468;2022-12-16T07:20:10;10.57;;;5.30;;
32639;SDS011;19049;52.524;11.468;2022-12-16T07:22:54;9.43;;;4.82;;
32639;SDS011;19049;52.524;11.468;2022-12-16T07:25:38;11.48;;;5.18;;
32639;SDS011;19049;52.524;11.468;2022-12-16T07:28:22;9.77;;;4.95;;
32639;SDS011;19049;52.524;11.468;2022-12-16T07:31:07;10.77;;;5.05;;
32639;SDS011;19049;52.524;11.468;2022-12-16T07:33:51;8.90;;;5.22;;
32639;SDS011;19049;52.524;11.468;2022-12-16T07:36:35;9.88;;;4.93;;
32639;SDS011;19049;52.524;11.468;2022-12-16T07:39:19;12.40;;;4.75;;
32639;SDS011;19049;52.524;11.468;2022-12-16T07:42:03;10.05;;;5.65;;
32639;SDS011;19049;52.524;11.468;2022-12-16T07:44:48;10.35;;;4.80;;
32639;SDS011;19049;52.524;11.468;2022-12-16T07:47:32;11.55;;;5.07;;
32639;SDS011;19049;52.524;11.468;2022-12-16T07:50:21;12.38;;;4.97;;
32639;SDS011;19049;52.524;11.468;2022-12-16T07:53:06;11.80;;;5.20;;
32639;SDS011;19049;52.524;11.468;2022-12-16T07:55:51;12.27;;;5.43;;
32639;SDS011;19049;52.524;11.468;2022-12-16T07:58:35;13.63;;;5.80;;
32639;SDS011;19049;52.524;11.468;2022-12-16T08:01:19;11.77;;;5.72;;
32639;SDS011;19049;52.524;11.468;2022-12-16T08:04:14;9.27;;;5.35;;
32639;SDS011;19049;52.524;11.468;2022-12-16T08:06:58;13.52;;;6.32;;
32639;SDS011;19049;52.524;11.468;2022-12-16T08:09:43;12.55;;;5.95;;
32639;SDS011;19049;52.524;11.468;2022-12-16T08:12:27;13.73;;;6.03;;
32639;SDS011;19049;52.524;11.468;2022-12-16T08:15:11;17.75;;;7.10;;
32639;SDS011;19049;52.524;11.468;2022-12-16T08:17:55;12.98;;;6.60;;
32639;SDS011;19049;52.524;11.468;2022-12-16T08:20:40;18.10;;;8.25;;
32639;SDS011;19049;52.524;11.468;2022-12-16T08:23:24;15.70;;;7.45;;
32639;SDS011;19049;52.524;11.468;2022-12-16T08:26:08;14.77;;;7.82;;
32639;SDS011;19049;52.524;11.468;2022-12-16T08:28:52;16.35;;;7.60;;
32639;SDS011;19049;52.524;11.468;2022-12-16T08:31:37;18.20;;;8.48;;
32639;SDS011;19049;52.524;11.468;2022-12-16T08:34:21;20.92;;;8.05;;
32639;SDS011;19049;52.524;11.468;2022-12-16T08:37:05;21.42;;;9.25;;
32639;SDS011;19049;52.524;11.468;2022-12-16T08:39:50;16.13;;;8.43;;
32639;SDS011;19049;52.524;11.468;2022-12-16T08:42:34;14.95;;;7.32;;
32639;SDS011;19049;52.524;11.468;2022-12-16T08:45:18;15.63;;;7.60;;
32639;SDS011;19049;52.524;11.468;2022-12-16T08:48:03;15.05;;;6.80;;
32639;SDS011;19049;52.524;11.468;2022-12-16T08:50:47;17.25;;;7.68;;
32639;SDS011;19049;52.524;11.468;2022-12-16T08:53:31;15.65;;;7.50;;
32639;SDS011;19049;52.524;11.468;2022-12-16T08:56:16;14.13;;;7.38;;
32639;SDS011;19049;52.524;11.468;2022-12-16T08:59:00;12.18;;;6.68;;
32639;SDS011;19049;52.524;11.468;2022-12-16T09:01:44;15.98;;;8.98;;
32639;SDS011;19049;52.524;11.468;2022-12-16T09:04:29;18.52;;;8.85;;
32639;SDS011;19049;52.524;11.468;2022-12-16T09:07:29;20.33;;;11.70;;
32639;SDS011;19049;52.524;11.468;2022-12-16T09:10:14;20.50;;;10.25;;
32639;SDS011;19049;52.524;11.468;2022-12-16T09:13:10;16.23;;;8.63;;
32639;SDS011;19049;52.524;11.468;2022-12-16T09:15:55;17.27;;;10.07;;
32639;SDS011;19049;52.524;11.468;2022-12-16T09:18:39;24.20;;;11.95;;
32639;SDS011;19049;52.524;11.468;2022-12-16T09:21:24;18.98;;;11.18;;
32639;SDS011;19049;52.524;11.468;2022-12-16T09:24:08;22.17;;;12.45;;
32639;SDS011;19049;52.524;11.468;2022-12-16T09:26:52;21.63;;;13.52;;
32639;SDS011;19049;52.524;11.468;2022-12-16T09:29:36;30.23;;;16.88;;
32639;SDS011;19049;52.524;11.468;2022-12-16T09:32:21;28.02;;;16.70;;
32639;SDS011;19049;52.524;11.468;2022-12-16T09:35:05;27.25;;;16.02;;
32639;SDS011;19049;52.524;11.468;2022-12-16T09:37:50;25.92;;;14.73;;
32639;SDS011;19049;52.524;11.468;2022-12-16T09:40:36;23.85;;;14.10;;
32639;SDS011;19049;52.524;11.468;2022-12-16T09:43:27;21.02;;;12.10;;
32639;SDS011;19049;52.524;11.468;2022-12-16T09:46:19;19.65;;;12.38;;
32639;SDS011;19049;52.524;11.468;2022-12-16T09:52:13;17.98;;;11.10;;
32639;SDS011;19049;52.524;11.468;2022-12-16T09:54:59;21.25;;;11.32;;
32639;SDS011;19049;52.524;11.468;2022-12-16T09:57:46;17.75;;;10.60;;
32639;SDS011;19049;52.524;11.468;2022-12-16T10:00:31;21.13;;;10.55;;
32639;SDS011;19049;52.524;11.468;2022-12-16T10:06:10;15.68;;;9.82;;
32639;SDS011;19049;52.524;11.468;2022-12-16T10:09:43;18.58;;;12.73;;
32639;SDS011;19049;52.524;11.468;2022-12-16T10:16:13;18.05;;;13.02;;
32639;SDS011;19049;52.524;11.468;2022-12-16T10:19:44;22.85;;;14.00;;
32639;SDS011;19049;52.524;11.468;2022-12-16T10:23:48;21.05;;;12.68;;
32639;SDS011;19049;52.524;11.468;2022-12-16T10:29:42;28.55;;;18.02;;
32639;SDS011;19049;52.524;11.468;2022-12-16T10:32:32;25.17;;;14.90;;
32639;SDS011;19049;52.524;11.468;2022-12-16T10:35:24;21.25;;;13.98;;
32639;SDS011;19049;52.524;11.468;2022-12-16T10:38:17;20.33;;;13.13;;
32639;SDS011;19049;52.524;11.468;2022-12-16T10:41:06;18.02;;;10.98;;
32639;SDS011;19049;52.524;11.468;2022-12-16T10:43:51;20.02;;;12.23;;
32639;SDS011;19049;52.524;11.468;2022-12-16T10:46:37;20.00;;;10.95;;
32639;SDS011;19049;52.524;11.468;2022-12-16T10:49:21;18.25;;;12.35;;
32639;SDS011;19049;52.524;11.468;2022-12-16T10:52:10;17.85;;;10.85;;
32639;SDS011;19049;52.524;11.468;2022-12-16T10:58:04;20.60;;;11.55;;
32639;SDS011;19049;52.524;11.468;2022-12-16T11:01:22;15.50;;;9.23;;
32639;SDS011;19049;52.524;11.468;2022-12-16T11:04:26;15.17;;;10.00;;
32639;SDS011;19049;52.524;11.468;2022-12-16T11:07:30;16.35;;;10.32;;
32639;SDS011;19049;52.524;11.468;2022-12-16T11:13:19;16.10;;;11.73;;
32639;SDS011;19049;52.524;11.468;2022-12-16T11:16:13;19.35;;;11.93;;
32639;SDS011;19049;52.524;11.468;2022-12-16T11:19:07;15.68;;;9.93;;
32639;SDS011;19049;52.524;11.468;2022-12-16T11:22:09;19.63;;;11.27;;
32639;SDS011;19049;52.524;11.468;2022-12-16T11:25:24;17.67;;;11.27;;
32639;SDS011;19049;52.524;11.468;2022-12-16T11:28:12;19.73;;;12.93;;
32639;SDS011;19049;52.524;11.468;2022-12-16T11:31:01;16.95;;;11.60;;
32639;SDS011;19049;52.524;11.468;2022-12-16T11:34:09;16.13;;;10.30;;
32639;SDS011;19049;52.524;11.468;2022-12-16T11:36:53;18.05;;;11.18;;
32639;SDS011;19049;52.524;11.468;2022-12-16T11:39:38;19.33;;;11.30;;
32639;SDS011;19049;52.524;11.468;2022-12-16T11:42:24;22.13;;;13.03;;
32639;SDS011;19049;52.524;11.468;2022-12-16T11:45:17;18.90;;;12.50;;
32639;SDS011;19049;52.524;11.468;2022-12-16T11:51:07;16.37;;;11.30;;
32639;SDS011;19049;52.524;11.468;2022-12-16T11:54:11;23.70;;;15.47;;
32639;SDS011;19049;52.524;11.468;2022-12-16T12:00:37;18.77;;;12.53;;
32639;SDS011;19049;52.524;11.468;2022-12-16T12:03:32;19.50;;;12.57;;
32639;SDS011;19049;52.524;11.468;2022-12-16T12:06:28;18.00;;;12.40;;
32639;SDS011;19049;52.524;11.468;2022-12-16T12:09:34;16.87;;;11.43;;
32639;SDS011;19049;52.524;11.468;2022-12-16T12:12:26;16.97;;;12.00;;
32639;SDS011;19049;52.524;11.468;2022-12-16T12:15:35;15.27;;;10.63;;
32639;SDS011;19049;52.524;11.468;2022-12-16T12:21:52;17.47;;;12.27;;
32639;SDS011;19049;52.524;11.468;2022-12-16T12:25:04;16.27;;;10.67;;
32639;SDS011;19049;52.524;11.468;2022-12-16T12:28:03;17.07;;;10.13;;
32639;SDS011;19049;52.524;11.468;2022-12-16T12:31:25;14.03;;;10.37;;
32639;SDS011;19049;52.524;11.468;2022-12-16T12:37:44;17.63;;;10.87;;
32639;SDS011;19049;52.524;11.468;2022-12-16T12:40:47;19.10;;;10.77;;
32639;SDS011;19049;52.524;11.468;2022-12-16T12:47:15;16.33;;;10.93;;
32639;SDS011;19049;52.524;11.468;2022-12-16T12:52:59;17.77;;;11.43;;
32639;SDS011;19049;52.524;11.468;2022-12-16T12:58:53;14.87;;;10.13;;
32639;SDS011;19049;52.524;11.468;2022-12-16T13:01:41;14.37;;;10.10;;
32639;SDS011;19049;52.524;11.468;2022-12-16T13:04:27;18.33;;;11.27;;
32639;SDS011;19049;52.524;11.468;2022-12-16T13:07:12;16.47;;;10.20;;
32639;SDS011;19049;52.524;11.468;2022-12-16T13:10:11;15.60;;;10.90;;
32639;SDS011;19049;52.524;11.468;2022-12-16T13:15:59;15.43;;;11.10;;
32639;SDS011;19049;52.524;11.468;2022-12-16T13:18:44;18.30;;;11.63;;
32639;SDS011;19049;52.524;11.468;2022-12-16T13:24:33;16.87;;;11.90;;
32639;SDS011;19049;52.524;11.468;2022-12-16T13:27:22;20.50;;;13.33;;
32639;SDS011;19049;52.524;11.468;2022-12-16T13:30:18;17.93;;;11.63;;
32639;SDS011;19049;52.524;11.468;2022-12-16T13:33:21;17.37;;;11.90;;
32639;SDS011;19049;52.524;11.468;2022-12-16T13:36:08;20.17;;;13.87;;
32639;SDS011;19049;52.524;11.468;2022-12-16T13:38:54;19.90;;;13.70;;
32639;SDS011;19049;52.524;11.468;2022-12-16T13:53:48;20.17;;;14.07;;
32639;SDS011;19049;52.524;11.468;2022-12-16T13:56:41;20.97;;;13.70;;
32639;SDS011;19049;52.524;11.468;2022-12-16T13:59:31;23.57;;;13.20;;
32639;SDS011;19049;52.524;11.468;2022-12-16T14:05:28;19.67;;;13.10;;
32639;SDS011;19049;52.524;11.468;2022-12-16T14:08:19;17.37;;;12.07;;
32639;SDS011;19049;52.524;11.468;2022-12-16T14:11:07;21.03;;;13.60;;
32639;SDS011;19049;52.524;11.468;2022-12-16T14:14:06;23.00;;;15.00;;
32639;SDS011;19049;52.524;11.468;2022-12-16T14:17:10;18.80;;;13.20;;
32639;SDS011;19049;52.524;11.468;2022-12-16T14:20:14;20.77;;;14.20;;
32639;SDS011;19049;52.524;11.468;2022-12-16T14:26:13;22.20;;;14.23;;
32639;SDS011;19049;52.524;11.468;2022-12-16T14:28:59;19.67;;;13.90;;
32639;SDS011;19049;52.524;11.468;2022-12-16T14:31:44;21.30;;;13.93;;
32639;SDS011;19049;52.524;11.468;2022-12-16T14:34:31;25.97;;;17.53;;
32639;SDS011;19049;52.524;11.468;2022-12-16T14:43:09;21.93;;;14.93;;
32639;SDS011;19049;52.524;11.468;2022-12-16T14:45:56;19.17;;;12.97;;
32639;SDS011;19049;52.524;11.468;2022-12-16T14:48:40;22.80;;;14.97;;
32639;SDS011;19049;52.524;11.468;2022-12-16T14:51:35;20.97;;;14.90;;
32639;SDS011;19049;52.524;11.468;2022-12-16T14:54:34;23.47;;;15.37;;
32639;SDS011;19049;52.524;11.468;2022-12-16T14:57:29;28.33;;;17.90;;
32639;SDS011;19049;52.524;11.468;2022-12-16T15:00:18;22.47;;;15.67;;
32639;SDS011;19049;52.524;11.468;2022-12-16T15:03:07;22.30;;;14.83;;
32639;SDS011;19049;52.524;11.468;2022-12-16T15:06:13;19.30;;;14.13;;
32639;SDS011;19049;52.524;11.468;2022-12-16T15:09:14;20.30;;;14.10;;
32639;SDS011;19049;52.524;11.468;2022-12-16T15:12:12;22.13;;;14.07;;
32639;SDS011;19049;52.524;11.468;2022-12-16T15:14:58;18.40;;;12.67;;
32639;SDS011;19049;52.524;11.468;2022-12-16T15:17:54;21.03;;;14.03;;
32639;SDS011;19049;52.524;11.468;2022-12-16T15:20:58;20.97;;;13.27;;
32639;SDS011;19049;52.524;11.468;2022-12-16T15:23:43;18.73;;;12.27;;
32639;SDS011;19049;52.524;11.468;2022-12-16T15:26:29;21.33;;;13.43;;
32639;SDS011;19049;52.524;11.468;2022-12-16T15:29:33;17.73;;;11.57;;
32639;SDS011;19049;52.524;11.468;2022-12-16T15:38:29;20.67;;;12.60;;
32639;SDS011;19049;52.524;11.468;2022-12-16T15:41:19;15.53;;;11.57;;
32639;SDS011;19049;52.524;11.468;2022-12-16T15:44:18;16.40;;;10.60;;
32639;SDS011;19049;52.524;11.468;2022-12-16T15:47:20;15.10;;;9.50;;
32639;SDS011;19049;52.524;11.468;2022-12-16T15:50:09;18.37;;;11.17;;
32639;SDS011;19049;52.524;11.468;2022-12-16T15:56:25;17.73;;;10.67;;
32639;SDS011;19049;52.524;11.468;2022-12-16T15:59:26;16.30;;;10.77;;
32639;SDS011;19049;52.524;11.468;2022-12-16T16:02:33;14.90;;;9.70;;
32639;SDS011;19049;52.524;11.468;2022-12-16T16:05:17;15.03;;;10.20;;
32639;SDS011;19049;52.524;11.468;2022-12-16T16:08:04;17.43;;;10.23;;
32639;SDS011;19049;52.524;11.468;2022-12-16T16:10:49;16.80;;;11.13;;
32639;SDS011;19049;52.524;11.468;2022-12-16T16:13:34;15.33;;;9.93;;
32639;SDS011;19049;52.524;11.468;2022-12-16T16:16:18;15.23;;;10.30;;
32639;SDS011;19049;52.524;11.468;2022-12-16T16:19:02;13.47;;;9.37;;
32639;SDS011;19049;52.524;11.468;2022-12-16T16:21:47;15.30;;;10.57;;
32639;SDS011;19049;52.524;11.468;2022-12-16T16:24:31;13.33;;;9.93;;
32639;SDS011;19049;52.524;11.468;2022-12-16T16:27:15;16.47;;;10.47;;
32639;SDS011;19049;52.524;11.468;2022-12-16T16:30:02;15.90;;;11.17;;
32639;SDS011;19049;52.524;11.468;2022-12-16T16:32:46;16.40;;;11.43;;
32639;SDS011;19049;52.524;11.468;2022-12-16T16:35:31;14.77;;;10.00;;
32639;SDS011;19049;52.524;11.468;2022-12-16T16:38:16;15.50;;;10.80;;
32639;SDS011;19049;52.524;11.468;2022-12-16T16:41:00;17.57;;;11.30;;
32639;SDS011;19049;52.524;11.468;2022-12-16T16:43:44;15.87;;;9.97;;
32639;SDS011;19049;52.524;11.468;2022-12-16T16:49:17;13.97;;;9.97;;
32639;SDS011;19049;52.524;11.468;2022-12-16T16:52:07;13.53;;;9.87;;
32639;SDS011;19049;52.524;11.468;2022-12-16T16:54:56;14.90;;;9.80;;
32639;SDS011;19049;52.524;11.468;2022-12-16T16:57:40;13.40;;;8.97;;
32639;SDS011;19049;52.524;11.468;2022-12-16T17:00:25;17.13;;;9.37;;
32639;SDS011;19049;52.524;11.468;2022-12-16T17:03:09;13.48;;;9.25;;
32639;SDS011;19049;52.524;11.468;2022-12-16T17:05:54;12.63;;;9.60;;
32639;SDS011;19049;52.524;11.468;2022-12-16T17:08:38;14.77;;;10.57;;
32639;SDS011;19049;52.524;11.468;2022-12-16T17:11:22;20.13;;;11.43;;
32639;SDS011;19049;52.524;11.468;2022-12-16T17:14:11;17.58;;;11.05;;
32639;SDS011;19049;52.524;11.468;2022-12-16T17:16:57;13.90;;;10.27;;
32639;SDS011;19049;52.524;11.468;2022-12-16T17:19:41;14.73;;;9.97;;
32639;SDS011;19049;52.524;11.468;2022-12-16T17:22:25;14.40;;;9.65;;
32639;SDS011;19049;52.524;11.468;2022-12-16T17:25:09;15.90;;;9.52;;
32639;SDS011;19049;52.524;11.468;2022-12-16T17:27:54;13.32;;;8.73;;
32639;SDS011;19049;52.524;11.468;2022-12-16T17:30:41;16.77;;;9.32;;
32639;SDS011;19049;52.524;11.468;2022-12-16T17:33:25;13.27;;;9.07;;
32639;SDS011;19049;52.524;11.468;2022-12-16T17:36:11;12.90;;;8.88;;
32639;SDS011;19049;52.524;11.468;2022-12-16T17:38:57;15.60;;;10.53;;
32639;SDS011;19049;52.524;11.468;2022-12-16T17:41:41;13.73;;;9.32;;
32639;SDS011;19049;52.524;11.468;2022-12-16T17:44:25;15.43;;;9.48;;
32639;SDS011;19049;52.524;11.468;2022-12-16T17:47:10;16.92;;;11.80;;
32639;SDS011;19049;52.524;11.468;2022-12-16T17:49:55;20.02;;;12.75;;
32639;SDS011;19049;52.524;11.468;2022-12-16T17:52:39;16.67;;;10.65;;
32639;SDS011;19049;52.524;11.468;2022-12-16T17:55:23;17.23;;;11.10;;
32639;SDS011;19049;52.524;11.468;2022-12-16T17:58:08;15.93;;;9.43;;